Time;durP1;ratioP1;P1;durP2;ratioP2;P2;SDS_P1;SDS_P2;PMS_P1;PMS_P2;Temp;Humidity;BMP_temperature;BMP_pressure;BME280_temperature;BME280_humidity;BME280_pressure;Samples;Min_cycle;Max_cycle;Signal;HPM_P1;HPM_P2
2022/06/15 00:00:23;;;;;;;8.38;4.40;;;;;;;;;;5030906;28;20067;-69
2022/06/15 00:02:48;;;;;;;10.07;5.00;;;;;;;;;;5031498;28;20029;-70
2022/06/15 00:05:14;;;;;;;6.85;5.03;;;;;;;;;;5031546;28;20084;-70
2022/06/15 00:07:39;;;;;;;12.15;5.20;;;;;;;;;;5031412;28;20037;-70
2022/06/15 00:10:05;;;;;;;11.68;5.10;;;;;;;;;;5031023;28;20112;-70
2022/06/15 00:12:31;;;;;;;10.05;4.63;;;;;;;;;;5031289;28;20505;-72
2022/06/15 00:14:56;;;;;;;10.02;4.53;;;;;;;;;;5031010;28;20059;-70
2022/06/15 00:17:21;;;;;;;8.73;4.82;;;;;;;;;;5031343;28;20045;-70
2022/06/15 00:19:47;;;;;;;9.98;4.43;;;;;;;;;;5031378;28;20044;-70
2022/06/15 00:22:12;;;;;;;6.50;4.75;;;;;;;;;;5030709;28;20042;-70
2022/06/15 00:24:38;;;;;;;7.10;4.95;;;;;;;;;;5031029;28;20029;-70
2022/06/15 00:27:04;;;;;;;6.63;4.82;;;;;;;;;;5031160;28;20175;-72
2022/06/15 00:29:30;;;;;;;11.63;4.68;;;;;;;;;;5013607;28;20048;-70
2022/06/15 00:31:56;;;;;;;7.93;4.38;;;;;;;;;;5031650;28;20044;-70
2022/06/15 00:34:21;;;;;;;11.70;4.70;;;;;;;;;;5034847;28;20037;-69
2022/06/15 00:36:47;;;;;;;6.00;4.63;;;;;;;;;;5035048;28;20045;-69
2022/06/15 00:39:15;;;;;;;6.93;4.78;;;;;;;;;;5034900;28;20048;-71
2022/06/15 00:41:41;;;;;;;6.85;4.53;;;;;;;;;;5034552;28;20424;-69
2022/06/15 00:44:19;;;;;;;12.88;4.70;;;;;;;;;;5016875;28;20512;-70
2022/06/15 00:46:48;;;;;;;7.20;4.25;;;;;;;;;;5016970;28;20382;-69
2022/06/15 00:49:17;;;;;;;7.75;4.28;;;;;;;;;;5034581;28;20083;-69
2022/06/15 00:51:43;;;;;;;12.32;4.60;;;;;;;;;;5016608;28;20030;-70
2022/06/15 00:54:10;;;;;;;8.68;4.65;;;;;;;;;;5034433;28;20037;-69
2022/06/15 00:56:37;;;;;;;10.00;4.68;;;;;;;;;;5034571;28;20405;-69
2022/06/15 00:59:24;;;;;;;7.82;4.80;;;;;;;;;;5034469;28;20026;-69
2022/06/15 01:01:50;;;;;;;9.00;4.88;;;;;;;;;;5034074;28;20041;-70
2022/06/15 01:04:19;;;;;;;11.95;4.80;;;;;;;;;;5034532;28;20022;-70
2022/06/15 01:06:56;;;;;;;8.25;5.05;;;;;;;;;;5034408;28;20030;-69
2022/06/15 01:09:27;;;;;;;6.10;4.20;;;;;;;;;;5016625;28;20033;-70
2022/06/15 01:11:58;;;;;;;10.13;5.07;;;;;;;;;;5033783;28;20078;-69
2022/06/15 01:15:02;;;;;;;8.93;4.57;;;;;;;;;;5016511;28;20033;-69
2022/06/15 01:17:45;;;;;;;10.55;5.03;;;;;;;;;;4956595;28;20039;-70
2022/06/15 01:20:32;;;;;;;7.03;4.45;;;;;;;;;;5012025;28;20149;-69
2022/06/15 01:23:34;;;;;;;8.60;5.30;;;;;;;;;;5016572;28;20037;-69
2022/06/15 01:26:12;;;;;;;8.25;5.07;;;;;;;;;;5016584;28;20033;-69
2022/06/15 01:28:40;;;;;;;8.50;5.10;;;;;;;;;;5016328;28;20080;-70
2022/06/15 01:31:33;;;;;;;9.32;5.05;;;;;;;;;;5015741;28;20071;-70
2022/06/15 01:34:27;;;;;;;9.93;4.88;;;;;;;;;;5016107;28;20037;-70
2022/06/15 01:37:34;;;;;;;7.80;5.30;;;;;;;;;;5016211;28;20375;-69
2022/06/15 01:40:11;;;;;;;10.60;5.28;;;;;;;;;;4972553;28;20551;-71
2022/06/15 01:43:03;;;;;;;9.25;4.90;;;;;;;;;;5011472;28;20049;-70
2022/06/15 01:45:32;;;;;;;7.07;4.70;;;;;;;;;;5033447;28;20064;-70
2022/06/15 01:48:03;;;;;;;8.63;5.38;;;;;;;;;;5023513;28;20033;-70
2022/06/15 01:50:39;;;;;;;9.30;5.20;;;;;;;;;;5031872;28;20055;-69
2022/06/15 01:53:10;;;;;;;9.60;5.18;;;;;;;;;;5032424;28;20163;-70
2022/06/15 01:55:42;;;;;;;9.30;4.68;;;;;;;;;;5033569;28;20029;-69
2022/06/15 01:58:12;;;;;;;9.13;4.72;;;;;;;;;;5032132;28;20444;-69
2022/06/15 02:00:39;;;;;;;11.35;5.18;;;;;;;;;;5031816;28;20792;-69
2022/06/15 02:03:20;;;;;;;9.52;4.90;;;;;;;;;;5032235;28;20060;-69
2022/06/15 02:05:56;;;;;;;5.97;4.70;;;;;;;;;;5032055;28;20030;-69
2022/06/15 02:08:40;;;;;;;7.68;4.70;;;;;;;;;;5031983;28;20033;-69
2022/06/15 02:11:12;;;;;;;8.82;4.70;;;;;;;;;;5031333;28;20033;-68
2022/06/15 02:13:42;;;;;;;6.85;5.18;;;;;;;;;;5031973;28;20091;-70
2022/06/15 02:16:22;;;;;;;8.50;5.18;;;;;;;;;;5031658;28;20029;-70
2022/06/15 02:18:50;;;;;;;7.10;5.00;;;;;;;;;;5031873;28;20068;-69
2022/06/15 02:21:19;;;;;;;6.68;4.35;;;;;;;;;;5032530;28;20504;-70
2022/06/15 02:23:49;;;;;;;6.65;5.05;;;;;;;;;;5031905;28;20084;-71
2022/06/15 02:26:16;;;;;;;7.35;5.13;;;;;;;;;;5031514;28;20045;-69
2022/06/15 02:28:49;;;;;;;7.93;4.60;;;;;;;;;;5031593;28;20047;-69
2022/06/15 02:31:14;;;;;;;10.10;4.73;;;;;;;;;;5031216;28;20030;-69
2022/06/15 02:33:48;;;;;;;12.57;5.35;;;;;;;;;;5031597;28;20029;-69
2022/06/15 02:36:14;;;;;;;12.20;4.68;;;;;;;;;;5031354;28;20091;-69
2022/06/15 02:38:42;;;;;;;6.03;4.75;;;;;;;;;;5031317;28;20045;-71
2022/06/15 02:41:08;;;;;;;9.93;4.88;;;;;;;;;;5030873;28;20029;-70
2022/06/15 02:43:37;;;;;;;11.00;4.65;;;;;;;;;;5031526;28;20112;-69
2022/06/15 02:46:05;;;;;;;7.63;4.65;;;;;;;;;;5031438;28;20789;-69
2022/06/15 02:48:31;;;;;;;9.02;4.85;;;;;;;;;;5031344;28;20060;-71
2022/06/15 02:51:14;;;;;;;6.45;4.43;;;;;;;;;;5030687;28;20052;-70
2022/06/15 02:53:42;;;;;;;5.90;4.32;;;;;;;;;;5031057;28;20037;-69
2022/06/15 02:56:11;;;;;;;6.90;4.90;;;;;;;;;;5013882;28;20099;-70
2022/06/15 02:58:40;;;;;;;10.05;4.82;;;;;;;;;;5031172;28;20033;-69
2022/06/15 03:01:06;;;;;;;7.30;4.80;;;;;;;;;;5030582;28;20044;-71
2022/06/15 03:03:35;;;;;;;12.30;5.57;;;;;;;;;;5030918;28;20389;-71
2022/06/15 03:06:13;;;;;;;11.63;4.60;;;;;;;;;;5030845;28;20052;-70
2022/06/15 03:08:40;;;;;;;8.95;5.15;;;;;;;;;;5030948;28;20037;-69
2022/06/15 03:11:15;;;;;;;7.53;5.00;;;;;;;;;;5030218;28;20428;-69
2022/06/15 03:13:41;;;;;;;9.55;4.78;;;;;;;;;;5030884;28;20044;-69
2022/06/15 03:16:07;;;;;;;13.38;4.97;;;;;;;;;;5030666;28;20037;-70
2022/06/15 03:18:33;;;;;;;8.60;4.78;;;;;;;;;;5030280;28;20021;-70
2022/06/15 03:21:04;;;;;;;7.88;4.43;;;;;;;;;;5030212;28;20041;-69
2022/06/15 03:23:31;;;;;;;9.23;4.95;;;;;;;;;;5030741;28;20065;-69
2022/06/15 03:25:59;;;;;;;9.32;4.63;;;;;;;;;;5030418;28;20041;-70
2022/06/15 03:28:26;;;;;;;10.93;4.55;;;;;;;;;;5031798;28;20067;-69
2022/06/15 03:30:52;;;;;;;12.13;4.75;;;;;;;;;;5029750;28;20135;-69
2022/06/15 03:33:18;;;;;;;6.57;4.82;;;;;;;;;;5030486;28;20445;-69
2022/06/15 03:35:45;;;;;;;7.55;4.50;;;;;;;;;;5030289;28;20037;-69
2022/06/15 03:38:17;;;;;;;7.78;4.40;;;;;;;;;;5030440;28;20175;-68
2022/06/15 03:40:50;;;;;;;7.93;4.80;;;;;;;;;;5029720;28;20580;-70
2022/06/15 03:43:16;;;;;;;7.80;4.68;;;;;;;;;;5031717;28;20029;-71
2022/06/15 03:45:43;;;;;;;7.35;5.00;;;;;;;;;;5030180;28;20034;-69
2022/06/15 03:48:10;;;;;;;7.22;4.80;;;;;;;;;;5029782;28;20037;-71
2022/06/15 03:50:37;;;;;;;7.10;4.55;;;;;;;;;;5013256;28;20036;-70
2022/06/15 03:53:04;;;;;;;8.13;4.90;;;;;;;;;;5030285;28;20405;-69
2022/06/15 03:55:35;;;;;;;9.93;5.07;;;;;;;;;;5030063;28;20049;-72
2022/06/15 03:58:05;;;;;;;10.15;4.72;;;;;;;;;;5029982;28;20064;-69
2022/06/15 04:00:33;;;;;;;10.10;4.97;;;;;;;;;;5029563;28;20037;-69
2022/06/15 04:03:08;;;;;;;5.47;4.97;;;;;;;;;;5030097;28;20494;-70
2022/06/15 04:05:56;;;;;;;9.43;5.22;;;;;;;;;;5030738;28;20069;-70
2022/06/15 04:08:37;;;;;;;9.45;5.07;;;;;;;;;;5029905;28;20037;-70
2022/06/15 04:14:10;;;;;;;12.98;5.40;;;;;;;;;;5029747;28;20457;-68
2022/06/15 04:16:37;;;;;;;12.13;5.70;;;;;;;;;;5030151;28;20029;-68
2022/06/15 04:19:07;;;;;;;12.20;5.63;;;;;;;;;;5029790;28;20075;-69
2022/06/15 04:21:33;;;;;;;7.97;4.95;;;;;;;;;;5013121;28;20087;-69
2022/06/15 04:23:58;;;;;;;12.63;5.50;;;;;;;;;;5029668;28;20037;-73
2022/06/15 04:26:27;;;;;;;10.82;5.68;;;;;;;;;;5029851;28;20025;-69
2022/06/15 04:28:52;;;;;;;8.15;5.13;;;;;;;;;;5029657;28;20041;-69
2022/06/15 04:31:23;;;;;;;8.18;5.32;;;;;;;;;;5029152;28;20087;-69
2022/06/15 04:33:49;;;;;;;8.43;4.90;;;;;;;;;;5029670;28;20124;-68
2022/06/15 04:36:16;;;;;;;6.70;4.68;;;;;;;;;;5029580;28;20669;-70
2022/06/15 04:38:46;;;;;;;13.55;4.97;;;;;;;;;;5029622;28;20029;-70
2022/06/15 04:41:12;;;;;;;9.75;5.25;;;;;;;;;;5029124;28;20078;-69
2022/06/15 04:43:38;;;;;;;10.75;4.70;;;;;;;;;;5029815;28;20029;-70
2022/06/15 04:46:09;;;;;;;6.78;5.13;;;;;;;;;;5029500;28;20033;-70
2022/06/15 04:48:36;;;;;;;11.52;5.50;;;;;;;;;;5029546;28;20124;-70
2022/06/15 04:51:24;;;;;;;9.02;5.35;;;;;;;;;;5028890;28;20107;-69
2022/06/15 04:53:53;;;;;;;8.57;5.38;;;;;;;;;;5029615;28;20029;-68
2022/06/15 04:56:20;;;;;;;11.00;5.20;;;;;;;;;;5029306;28;20438;-69
2022/06/15 04:58:47;;;;;;;7.28;5.13;;;;;;;;;;5029501;28;20033;-69
2022/06/15 05:01:15;;;;;;;6.85;5.10;;;;;;;;;;5028764;28;20037;-69
2022/06/15 05:03:43;;;;;;;7.47;5.13;;;;;;;;;;5029222;28;20040;-69
2022/06/15 05:06:09;;;;;;;7.63;5.50;;;;;;;;;;5029144;28;20037;-70
2022/06/15 05:08:34;;;;;;;6.82;4.53;;;;;;;;;;5030774;28;20033;-70
2022/06/15 05:11:00;;;;;;;6.07;4.50;;;;;;;;;;5028835;28;20044;-69
2022/06/15 05:13:28;;;;;;;8.85;4.80;;;;;;;;;;5029349;28;20096;-69
2022/06/15 05:15:53;;;;;;;10.38;4.95;;;;;;;;;;5029154;28;20025;-69
2022/06/15 05:18:19;;;;;;;11.02;4.72;;;;;;;;;;5030863;28;20037;-69
2022/06/15 05:20:46;;;;;;;9.80;4.95;;;;;;;;;;5032464;28;20040;-69
2022/06/15 05:23:18;;;;;;;10.18;4.10;;;;;;;;;;5033095;28;20056;-69
2022/06/15 05:26:02;;;;;;;6.53;4.40;;;;;;;;;;5033818;28;20056;-70
2022/06/15 05:28:29;;;;;;;7.07;4.45;;;;;;;;;;5032876;28;20029;-70
2022/06/15 05:31:05;;;;;;;5.78;4.35;;;;;;;;;;5032538;28;20422;-70
2022/06/15 05:33:33;;;;;;;9.85;4.57;;;;;;;;;;5032759;28;20409;-69
2022/06/15 05:36:09;;;;;;;7.40;4.75;;;;;;;;;;5032660;28;20034;-72
2022/06/15 05:38:35;;;;;;;7.28;4.25;;;;;;;;;;5032790;28;20052;-69
2022/06/15 05:41:02;;;;;;;6.03;4.45;;;;;;;;;;5031985;28;20033;-69
2022/06/15 05:43:30;;;;;;;6.32;4.72;;;;;;;;;;5032588;28;20037;-70
2022/06/15 05:45:56;;;;;;;5.20;4.00;;;;;;;;;;5032257;28;20037;-69
2022/06/15 05:48:21;;;;;;;11.15;4.22;;;;;;;;;;5032334;28;20487;-70
2022/06/15 05:50:48;;;;;;;7.60;4.32;;;;;;;;;;5031808;28;20029;-69
2022/06/15 05:53:17;;;;;;;8.32;4.25;;;;;;;;;;5032334;28;20379;-70
2022/06/15 05:55:43;;;;;;;9.60;4.88;;;;;;;;;;5033523;28;20501;-69
2022/06/15 05:58:08;;;;;;;7.07;4.70;;;;;;;;;;5033451;28;20052;-69
2022/06/15 06:00:34;;;;;;;7.03;4.35;;;;;;;;;;5033002;28;20044;-70
2022/06/15 06:03:00;;;;;;;8.00;4.30;;;;;;;;;;5033532;28;20466;-70
2022/06/15 06:05:25;;;;;;;5.80;4.50;;;;;;;;;;5033264;28;20037;-70
2022/06/15 06:07:51;;;;;;;4.80;3.83;;;;;;;;;;5032206;28;20037;-69
2022/06/15 06:10:16;;;;;;;8.82;4.00;;;;;;;;;;5033491;28;20455;-69
2022/06/15 06:12:42;;;;;;;6.32;3.67;;;;;;;;;;5030118;28;20454;-71
2022/06/15 06:15:08;;;;;;;6.80;4.18;;;;;;;;;;5033137;28;20410;-69
2022/06/15 06:17:33;;;;;;;9.27;3.92;;;;;;;;;;5033044;28;20128;-69
2022/06/15 06:19:59;;;;;;;5.82;3.80;;;;;;;;;;5033229;28;20127;-70
2022/06/15 06:22:24;;;;;;;5.35;3.65;;;;;;;;;;5032678;28;20033;-70
2022/06/15 06:24:50;;;;;;;7.28;3.80;;;;;;;;;;5032445;28;20025;-70
2022/06/15 06:27:16;;;;;;;6.13;3.80;;;;;;;;;;5032573;28;20037;-69
2022/06/15 06:29:42;;;;;;;5.22;3.65;;;;;;;;;;5031580;28;20037;-69
2022/06/15 06:32:11;;;;;;;6.38;4.35;;;;;;;;;;5032283;28;20044;-69
2022/06/15 06:34:37;;;;;;;5.00;3.50;;;;;;;;;;5031525;28;20557;-70
2022/06/15 06:37:05;;;;;;;6.50;3.70;;;;;;;;;;5032825;28;20108;-70
2022/06/15 06:39:31;;;;;;;4.63;3.33;;;;;;;;;;5032730;28;20163;-69
2022/06/15 06:41:59;;;;;;;3.58;2.90;;;;;;;;;;5032177;28;20575;-71
2022/06/15 06:44:25;;;;;;;5.55;3.28;;;;;;;;;;5032632;28;20078;-70
2022/06/15 06:46:52;;;;;;;7.70;3.28;;;;;;;;;;5032668;28;20433;-71
2022/06/15 06:49:19;;;;;;;4.78;3.10;;;;;;;;;;5032369;28;20065;-70
2022/06/15 06:51:45;;;;;;;3.38;3.08;;;;;;;;;;5032348;28;20073;-69
2022/06/15 06:54:13;;;;;;;4.93;2.80;;;;;;;;;;5032406;28;20052;-70
2022/06/15 06:56:38;;;;;;;7.95;3.03;;;;;;;;;;5032402;28;20051;-70
2022/06/15 06:59:06;;;;;;;4.85;3.25;;;;;;;;;;5032339;28;20394;-70
2022/06/15 07:01:33;;;;;;;6.57;2.50;;;;;;;;;;5032006;28;20505;-70
2022/06/15 07:03:58;;;;;;;6.70;2.65;;;;;;;;;;5032301;28;20018;-73
2022/06/15 07:06:24;;;;;;;6.43;2.90;;;;;;;;;;5031138;28;20037;-71
2022/06/15 07:08:50;;;;;;;5.63;2.92;;;;;;;;;;5032235;28;20053;-69
2022/06/15 07:11:17;;;;;;;8.52;3.30;;;;;;;;;;5031383;28;20104;-70
2022/06/15 07:13:43;;;;;;;7.97;3.22;;;;;;;;;;5028096;28;20079;-70
2022/06/15 07:16:11;;;;;;;4.90;3.13;;;;;;;;;;5031903;28;20535;-70
2022/06/15 07:18:37;;;;;;;4.80;2.85;;;;;;;;;;5030707;28;20091;-71
2022/06/15 07:21:04;;;;;;;7.25;2.80;;;;;;;;;;5031302;28;20038;-71
2022/06/15 07:23:30;;;;;;;5.07;2.80;;;;;;;;;;5032225;28;20030;-70
2022/06/15 07:25:55;;;;;;;3.20;2.40;;;;;;;;;;5030853;28;20037;-71
2022/06/15 07:28:21;;;;;;;4.32;2.67;;;;;;;;;;5014162;28;20040;-71
2022/06/15 07:30:46;;;;;;;3.92;2.55;;;;;;;;;;5031313;28;20383;-70
2022/06/15 07:33:12;;;;;;;7.07;3.03;;;;;;;;;;5031694;28;20040;-72
2022/06/15 07:35:38;;;;;;;3.95;2.53;;;;;;;;;;5031697;28;20470;-72
2022/06/15 07:38:05;;;;;;;5.15;2.40;;;;;;;;;;5031758;28;20082;-72
2022/06/15 07:40:30;;;;;;;8.07;2.53;;;;;;;;;;5031180;28;20037;-71
2022/06/15 07:42:56;;;;;;;6.40;2.40;;;;;;;;;;5031217;28;20033;-72
2022/06/15 07:45:24;;;;;;;3.42;2.45;;;;;;;;;;5031732;28;20030;-72
2022/06/15 07:50:36;;;;;;;4.97;2.55;;;;;;;;;;5031420;28;20029;-71
2022/06/15 07:53:04;;;;;;;5.15;2.70;;;;;;;;;;5030972;28;20542;-70
2022/06/15 07:55:32;;;;;;;4.97;2.70;;;;;;;;;;5031328;28;20082;-71
2022/06/15 07:58:00;;;;;;;6.22;2.53;;;;;;;;;;5030018;28;20029;-71
2022/06/15 08:00:26;;;;;;;3.92;2.60;;;;;;;;;;5030171;28;20482;-71
2022/06/15 08:02:52;;;;;;;3.92;2.97;;;;;;;;;;5013196;28;20486;-70
2022/06/15 08:05:19;;;;;;;4.90;2.55;;;;;;;;;;5031092;28;20037;-70
2022/06/15 08:07:45;;;;;;;4.40;2.95;;;;;;;;;;5029979;28;20504;-72
2022/06/15 08:10:12;;;;;;;4.97;2.38;;;;;;;;;;5031356;28;20401;-71
2022/06/15 08:12:37;;;;;;;4.22;2.60;;;;;;;;;;5030625;28;20286;-72
2022/06/15 08:15:04;;;;;;;4.45;2.25;;;;;;;;;;5031018;28;20640;-72
2022/06/15 08:17:46;;;;;;;7.30;2.50;;;;;;;;;;5031295;28;20109;-72
2022/06/15 08:20:18;;;;;;;4.15;2.58;;;;;;;;;;5030871;28;20030;-72
2022/06/15 08:22:47;;;;;;;7.07;3.00;;;;;;;;;;5029629;28;20037;-71
2022/06/15 08:25:16;;;;;;;4.57;2.40;;;;;;;;;;5029375;28;20056;-71
2022/06/15 08:27:42;;;;;;;3.22;2.45;;;;;;;;;;5031198;28;20482;-71
2022/06/15 08:30:11;;;;;;;5.30;2.47;;;;;;;;;;5031060;28;20121;-72
2022/06/15 08:32:38;;;;;;;4.55;2.83;;;;;;;;;;5030415;28;20029;-71
2022/06/15 08:35:05;;;;;;;6.60;2.70;;;;;;;;;;5029732;28;20041;-72
2022/06/15 08:37:31;;;;;;;2.92;2.50;;;;;;;;;;5030967;28;20037;-71
2022/06/15 08:39:57;;;;;;;4.57;2.40;;;;;;;;;;5029724;28;20402;-71
2022/06/15 08:42:39;;;;;;;3.00;2.47;;;;;;;;;;5012732;28;20470;-72
2022/06/15 08:45:37;;;;;;;7.70;2.72;;;;;;;;;;5030922;28;20037;-71
2022/06/15 08:48:28;;;;;;;5.15;2.95;;;;;;;;;;5030422;28;20117;-72
2022/06/15 08:51:11;;;;;;;5.80;2.50;;;;;;;;;;5030545;28;20041;-72
2022/06/15 08:53:43;;;;;;;5.70;2.15;;;;;;;;;;5033331;28;20038;-72
2022/06/15 08:56:11;;;;;;;4.45;2.63;;;;;;;;;;5034613;28;20080;-71
2022/06/15 08:58:48;;;;;;;5.82;2.55;;;;;;;;;;5033549;28;20635;-72
2022/06/15 09:01:33;;;;;;;4.40;2.30;;;;;;;;;;5016344;28;20111;-72
2022/06/15 09:04:07;;;;;;;5.57;2.30;;;;;;;;;;5034684;28;20037;-70
2022/06/15 09:06:47;;;;;;;3.40;2.40;;;;;;;;;;5034706;28;20033;-72
2022/06/15 09:09:27;;;;;;;6.15;2.60;;;;;;;;;;5033181;28;20033;-72
2022/06/15 09:15:14;;;;;;;2.78;2.17;;;;;;;;;;5034664;28;20048;-72
2022/06/15 09:17:40;;;;;;;7.65;2.63;;;;;;;;;;5034590;28;20029;-72
2022/06/15 09:20:10;;;;;;;7.07;1.98;;;;;;;;;;5032753;28;20037;-71
2022/06/15 09:22:44;;;;;;;2.45;1.65;;;;;;;;;;5033837;28;20410;-72
2022/06/15 09:25:23;;;;;;;3.92;1.75;;;;;;;;;;5034123;28;20056;-71
2022/06/15 09:28:12;;;;;;;4.20;1.90;;;;;;;;;;5034285;28;20037;-72
2022/06/15 09:30:41;;;;;;;4.70;1.77;;;;;;;;;;5033704;28;20045;-72
2022/06/15 09:33:28;;;;;;;6.70;2.20;;;;;;;;;;5033443;28;20041;-71
2022/06/15 09:36:02;;;;;;;5.93;1.75;;;;;;;;;;5033965;28;20045;-71
2022/06/15 09:38:29;;;;;;;1.70;1.60;;;;;;;;;;5034009;28;20124;-72
2022/06/15 09:41:03;;;;;;;4.30;1.80;;;;;;;;;;5033234;28;20159;-70
2022/06/15 09:44:04;;;;;;;3.17;2.15;;;;;;;;;;5034069;28;20037;-71
2022/06/15 09:46:51;;;;;;;3.20;1.95;;;;;;;;;;5029805;28;20067;-72
2022/06/15 09:49:46;;;;;;;6.35;1.55;;;;;;;;;;5032501;28;20041;-71
2022/06/15 09:52:21;;;;;;;5.80;2.30;;;;;;;;;;5032318;28;20112;-71
2022/06/15 09:55:08;;;;;;;3.67;2.05;;;;;;;;;;5033369;28;20034;-71
2022/06/15 09:57:35;;;;;;;7.63;2.22;;;;;;;;;;5032448;28;20034;-71
2022/06/15 10:00:04;;;;;;;6.15;1.80;;;;;;;;;;5033330;28;20040;-70
2022/06/15 10:02:38;;;;;;;2.10;1.60;;;;;;;;;;5032003;28;20063;-72
2022/06/15 10:05:07;;;;;;;7.18;1.80;;;;;;;;;;5033209;28;20056;-72
2022/06/15 10:07:40;;;;;;;12.30;1.77;;;;;;;;;;5032372;28;20425;-72
2022/06/15 10:10:17;;;;;;;2.30;1.67;;;;;;;;;;5033300;28;20037;-72
2022/06/15 10:12:58;;;;;;;3.25;1.85;;;;;;;;;;5032543;28;20482;-72
2022/06/15 10:15:27;;;;;;;3.28;1.83;;;;;;;;;;5032291;28;20096;-70
2022/06/15 10:17:57;;;;;;;5.78;2.00;;;;;;;;;;5015684;28;20077;-72
2022/06/15 10:20:35;;;;;;;6.20;2.10;;;;;;;;;;5033675;28;20378;-72
2022/06/15 10:23:05;;;;;;;2.78;1.90;;;;;;;;;;5032899;28;20041;-71
2022/06/15 10:25:35;;;;;;;5.25;1.83;;;;;;;;;;5032877;28;20402;-72
2022/06/15 10:28:15;;;;;;;5.75;2.00;;;;;;;;;;5033457;28;20029;-72
2022/06/15 10:30:57;;;;;;;9.60;2.40;;;;;;;;;;5033383;28;20037;-71
2022/06/15 10:33:24;;;;;;;4.47;2.00;;;;;;;;;;5033276;28;20405;-72
2022/06/15 10:35:58;;;;;;;5.38;1.92;;;;;;;;;;5033052;28;20037;-72
2022/06/15 10:38:26;;;;;;;24.10;2.47;;;;;;;;;;5033037;28;20084;-72
2022/06/15 10:43:47;;;;;;;7.40;2.22;;;;;;;;;;5032883;28;20112;-73
2022/06/15 10:46:13;;;;;;;8.65;1.90;;;;;;;;;;5014850;28;20025;-72
2022/06/15 10:48:52;;;;;;;3.03;1.92;;;;;;;;;;5032660;28;20087;-71
2022/06/15 10:51:39;;;;;;;2.72;1.90;;;;;;;;;;5032216;28;20033;-72
2022/06/15 10:54:16;;;;;;;3.72;1.63;;;;;;;;;;5032200;28;20038;-72
2022/06/15 11:02:44;;;;;;;4.93;1.73;;;;;;;;;;5031751;28;20148;-70
2022/06/15 11:05:09;;;;;;;2.42;1.70;;;;;;;;;;5032265;28;20033;-71
2022/06/15 11:07:57;;;;;;;2.58;1.63;;;;;;;;;;5031135;28;20063;-70
2022/06/15 11:10:31;;;;;;;2.30;1.50;;;;;;;;;;5032209;28;20781;-70
2022/06/15 11:13:06;;;;;;;4.53;1.48;;;;;;;;;;5031507;28;20029;-70
2022/06/15 11:18:36;;;;;;;2.67;1.52;;;;;;;;;;5031915;28;20029;-70
2022/06/15 11:21:11;;;;;;;2.45;1.60;;;;;;;;;;5031376;28;20069;-71
2022/06/15 11:23:49;;;;;;;3.85;1.67;;;;;;;;;;5032000;28;20029;-70
2022/06/15 11:26:52;;;;;;;2.25;1.55;;;;;;;;;;5031639;28;20036;-70
2022/06/15 11:29:40;;;;;;;6.32;1.42;;;;;;;;;;5022008;28;20383;-70
2022/06/15 11:32:29;;;;;;;4.18;1.65;;;;;;;;;;5031102;28;20091;-71
2022/06/15 11:35:13;;;;;;;2.88;1.40;;;;;;;;;;5031731;28;20064;-71
2022/06/15 11:37:51;;;;;;;1.58;1.42;;;;;;;;;;5031732;28;20047;-71
2022/06/15 11:40:35;;;;;;;4.38;1.75;;;;;;;;;;5030416;28;20116;-70
2022/06/15 11:43:09;;;;;;;3.17;1.70;;;;;;;;;;5031043;28;20561;-70
2022/06/15 11:45:49;;;;;;;5.68;1.73;;;;;;;;;;5031623;28;20099;-71
2022/06/15 11:48:45;;;;;;;2.17;1.50;;;;;;;;;;5031502;28;20034;-70
2022/06/15 11:51:49;;;;;;;4.35;1.60;;;;;;;;;;5031016;28;20034;-70
2022/06/15 11:54:55;;;;;;;2.40;1.30;;;;;;;;;;5020027;28;20140;-73
2022/06/15 11:58:05;;;;;;;3.42;1.70;;;;;;;;;;5009365;28;20033;-71
2022/06/15 12:00:58;;;;;;;1.95;1.48;;;;;;;;;;4997980;28;20049;-70
2022/06/15 12:04:01;;;;;;;4.10;1.70;;;;;;;;;;5031295;28;20029;-70
2022/06/15 12:06:57;;;;;;;2.95;1.50;;;;;;;;;;5031477;28;20041;-70
2022/06/15 12:09:31;;;;;;;7.90;1.83;;;;;;;;;;5031160;28;20033;-71
2022/06/15 12:15:13;;;;;;;5.38;1.55;;;;;;;;;;5031225;28;20454;-70
2022/06/15 12:17:49;;;;;;;6.20;1.70;;;;;;;;;;5031361;28;20041;-70
2022/06/15 12:20:42;;;;;;;4.45;1.73;;;;;;;;;;5031192;28;20548;-70
2022/06/15 12:23:36;;;;;;;2.88;1.58;;;;;;;;;;5029240;28;20042;-70
2022/06/15 12:26:01;;;;;;;3.30;1.75;;;;;;;;;;5030926;28;20076;-70
2022/06/15 12:28:35;;;;;;;1.70;1.55;;;;;;;;;;5034979;28;20060;-71
2022/06/15 12:31:25;;;;;;;8.52;1.38;;;;;;;;;;5035142;28;20191;-70
2022/06/15 12:34:02;;;;;;;2.75;1.70;;;;;;;;;;5035305;28;20048;-71
2022/06/15 12:36:37;;;;;;;6.38;1.90;;;;;;;;;;5035238;28;20807;-70
2022/06/15 12:39:25;;;;;;;3.05;1.58;;;;;;;;;;5035049;28;20507;-69
2022/06/15 12:42:09;;;;;;;2.97;1.33;;;;;;;;;;5030747;28;20056;-71
2022/06/15 12:44:43;;;;;;;4.68;1.60;;;;;;;;;;5033499;28;20055;-70
2022/06/15 12:47:16;;;;;;;5.68;2.10;;;;;;;;;;5034974;28;20121;-71
2022/06/15 12:50:00;;;;;;;3.88;1.50;;;;;;;;;;5034972;28;20453;-70
2022/06/15 12:52:44;;;;;;;4.60;1.58;;;;;;;;;;5034577;28;20045;-70
2022/06/15 12:55:47;;;;;;;1.70;1.60;;;;;;;;;;5034497;28;20042;-70
2022/06/15 12:58:28;;;;;;;2.47;2.00;;;;;;;;;;5034801;28;20033;-72
2022/06/15 13:01:00;;;;;;;;;;;;;;;;;;5035190;28;20036;-70
2022/06/15 13:03:43;;;;;;;5.57;1.90;;;;;;;;;;5034118;28;19923;-71
2022/06/15 13:06:24;;;;;;;3.30;1.88;;;;;;;;;;5034506;28;20540;-71
2022/06/15 13:09:16;;;;;;;4.43;2.10;;;;;;;;;;5034682;28;20393;-70
2022/06/15 13:11:47;;;;;;;3.15;1.77;;;;;;;;;;5033809;28;20044;-71
2022/06/15 13:14:16;;;;;;;4.82;1.90;;;;;;;;;;5034518;28;20124;-72
2022/06/15 13:16:55;;;;;;;2.65;1.90;;;;;;;;;;5034593;28;20121;-70
2022/06/15 13:19:41;;;;;;;4.20;1.73;;;;;;;;;;5034254;28;20044;-72
2022/06/15 13:22:11;;;;;;;4.82;1.92;;;;;;;;;;5033757;28;20087;-72
2022/06/15 13:24:50;;;;;;;3.20;1.80;;;;;;;;;;5034207;28;20371;-72
2022/06/15 13:27:21;;;;;;;3.13;1.83;;;;;;;;;;5034811;28;20034;-73
2022/06/15 13:30:08;;;;;;;4.43;1.83;;;;;;;;;;5032999;28;20038;-73
2022/06/15 13:33:09;;;;;;;2.70;1.60;;;;;;;;;;5033872;28;20044;-72
2022/06/15 13:35:38;;;;;;;3.55;2.00;;;;;;;;;;5011830;28;20049;-73
2022/06/15 13:38:28;;;;;;;2.78;1.80;;;;;;;;;;5028500;28;20038;-71
2022/06/15 13:40:53;;;;;;;6.25;2.00;;;;;;;;;;5034305;28;20071;-71
2022/06/15 13:43:51;;;;;;;8.55;2.10;;;;;;;;;;5033818;28;20054;-70
2022/06/15 13:46:25;;;;;;;5.78;2.25;;;;;;;;;;5033881;28;20037;-71
2022/06/15 13:48:54;;;;;;;7.18;1.70;;;;;;;;;;5033743;28;20045;-70
2022/06/15 13:51:33;;;;;;;3.35;1.73;;;;;;;;;;5033130;28;20095;-70
2022/06/15 13:54:05;;;;;;;3.33;1.80;;;;;;;;;;5033736;28;20037;-71
2022/06/15 13:56:42;;;;;;;10.18;1.90;;;;;;;;;;5033954;28;20033;-71
2022/06/15 13:59:31;;;;;;;1.80;1.70;;;;;;;;;;5033835;28;20037;-70
2022/06/15 14:02:32;;;;;;;3.85;1.70;;;;;;;;;;5033076;28;20045;-71
2022/06/15 14:05:08;;;;;;;7.32;1.77;;;;;;;;;;5033709;28;20041;-71
2022/06/15 14:08:02;;;;;;;2.65;1.65;;;;;;;;;;5033395;28;20033;-70
2022/06/15 14:10:34;;;;;;;3.42;1.92;;;;;;;;;;5033324;28;20592;-71
2022/06/15 14:13:20;;;;;;;4.03;1.90;;;;;;;;;;5028524;28;20038;-71
2022/06/15 14:15:51;;;;;;;3.42;1.52;;;;;;;;;;5033223;28;20112;-72
2022/06/15 14:18:44;;;;;;;3.90;2.03;;;;;;;;;;5033089;28;20129;-71
2022/06/15 14:21:21;;;;;;;1.95;1.60;;;;;;;;;;5033371;28;20056;-71
2022/06/15 14:23:47;;;;;;;4.30;1.63;;;;;;;;;;5015446;28;20076;-71
2022/06/15 14:26:17;;;;;;;2.47;1.80;;;;;;;;;;5032785;28;20045;-71
2022/06/15 14:28:54;;;;;;;4.10;1.75;;;;;;;;;;5033338;28;20069;-72
2022/06/15 14:31:24;;;;;;;4.22;1.70;;;;;;;;;;5032782;28;20037;-72
2022/06/15 14:33:56;;;;;;;1.55;1.45;;;;;;;;;;5033184;28;20037;-72
2022/06/15 14:36:24;;;;;;;3.92;1.70;;;;;;;;;;5031451;28;20029;-71
2022/06/15 14:38:59;;;;;;;3.08;1.55;;;;;;;;;;5031685;28;20037;-71
2022/06/15 14:41:32;;;;;;;3.80;1.80;;;;;;;;;;5032368;28;20379;-72
2022/06/15 14:43:58;;;;;;;4.15;1.65;;;;;;;;;;5014947;28;20540;-72
2022/06/15 14:46:40;;;;;;;1.85;1.40;;;;;;;;;;5031311;28;20037;-71
2022/06/15 14:49:07;;;;;;;2.58;1.75;;;;;;;;;;5032874;28;20413;-71
2022/06/15 14:51:33;;;;;;;2.35;1.42;;;;;;;;;;5030800;28;20033;-72
2022/06/15 14:54:06;;;;;;;5.18;1.50;;;;;;;;;;5032565;28;20038;-71
2022/06/15 14:56:47;;;;;;;5.20;1.65;;;;;;;;;;5031433;28;20643;-73
2022/06/15 14:59:20;;;;;;;2.97;1.65;;;;;;;;;;5032508;28;20062;-71
2022/06/15 15:02:12;;;;;;;4.93;1.52;;;;;;;;;;5031895;28;20037;-71
2022/06/15 15:04:47;;;;;;;5.88;1.70;;;;;;;;;;5030977;28;20478;-72
2022/06/15 15:10:04;;;;;;;3.50;1.75;;;;;;;;;;5032185;28;20119;-70
2022/06/15 15:12:37;;;;;;;3.92;1.52;;;;;;;;;;5028482;28;20167;-72
2022/06/15 15:15:04;;;;;;;6.45;1.75;;;;;;;;;;5031868;28;20113;-72
2022/06/15 15:17:52;;;;;;;2.03;1.50;;;;;;;;;;5032140;28;20045;-71
2022/06/15 15:20:37;;;;;;;2.97;1.50;;;;;;;;;;5032114;28;20029;-72
2022/06/15 15:23:04;;;;;;;4.03;1.73;;;;;;;;;;5031459;28;20041;-71
2022/06/15 15:25:51;;;;;;;4.63;1.95;;;;;;;;;;5030299;28;20037;-72
2022/06/15 15:34:13;;;;;;;3.50;1.88;;;;;;;;;;5030351;28;20041;-72
2022/06/15 15:39:43;;;;;;;5.28;1.92;;;;;;;;;;5031766;28;20099;-72
2022/06/15 15:42:12;;;;;;;5.35;1.83;;;;;;;;;;5029863;28;20037;-72
2022/06/15 15:44:38;;;;;;;6.03;1.83;;;;;;;;;;5030398;28;20033;-72
2022/06/15 15:47:05;;;;;;;5.40;1.77;;;;;;;;;;5031611;28;20617;-72
2022/06/15 15:49:32;;;;;;;3.45;1.88;;;;;;;;;;5031359;28;20057;-71
2022/06/15 15:52:00;;;;;;;4.55;1.83;;;;;;;;;;5031108;28;20041;-70